Time;durP1;ratioP1;P1;durP2;ratioP2;P2;SDS_P1;SDS_P2;PMS_P1;PMS_P2;Temp;Humidity;BMP_temperature;BMP_pressure;BME280_temperature;BME280_humidity;BME280_pressure;Samples;Min_cycle;Max_cycle;Signal;HPM_P1;HPM_P2
2023/08/03 00:00:33;;;;;;;6.45;1.67;;;16.50;99.90;;;;;;5063988;28;20032;-57
2023/08/03 00:02:58;;;;;;;6.57;1.50;;;16.50;99.90;;;;;;5091429;28;20041;-56
2023/08/03 00:05:24;;;;;;;4.68;1.75;;;16.50;99.90;;;;;;5079624;28;20029;-56
2023/08/03 00:07:51;;;;;;;6.50;1.40;;;16.50;99.90;;;;;;5081253;28;20131;-57
2023/08/03 00:10:18;;;;;;;8.45;1.63;;;16.50;99.90;;;;;;5080601;28;20501;-57
2023/08/03 00:12:45;;;;;;;3.63;1.38;;;16.50;99.90;;;;;;5079753;28;20052;-57
2023/08/03 00:15:12;;;;;;;5.32;1.65;;;16.50;99.90;;;;;;5078303;28;20052;-57
2023/08/03 00:17:38;;;;;;;4.88;1.63;;;16.40;99.90;;;;;;5091127;28;20451;-57
2023/08/03 00:20:06;;;;;;;5.72;1.67;;;16.50;99.90;;;;;;5099053;28;20071;-57
2023/08/03 00:22:33;;;;;;;5.95;1.67;;;16.40;99.90;;;;;;5089325;28;20091;-57
2023/08/03 00:24:59;;;;;;;4.55;1.60;;;16.40;99.90;;;;;;5080085;28;20052;-57
2023/08/03 00:27:25;;;;;;;6.47;1.60;;;16.40;99.90;;;;;;5084124;28;20037;-56
2023/08/03 00:29:51;;;;;;;5.05;1.30;;;16.40;99.90;;;;;;5079027;28;20036;-58
2023/08/03 00:32:17;;;;;;;4.78;1.60;;;16.40;99.90;;;;;;5079125;28;20047;-57
2023/08/03 00:34:43;;;;;;;6.43;1.67;;;16.40;99.90;;;;;;5078860;28;20479;-57
2023/08/03 00:37:13;;;;;;;2.00;0.90;;;16.40;99.90;;;;;;5089600;28;20040;-55
2023/08/03 00:39:39;;;;;;;3.40;1.10;;;16.40;99.90;;;;;;5086321;28;20036;-58
2023/08/03 00:42:05;;;;;;;6.22;1.33;;;16.40;99.90;;;;;;5103621;28;20244;-57
2023/08/03 00:44:31;;;;;;;3.65;1.17;;;16.40;99.90;;;;;;5099750;28;20032;-56
2023/08/03 00:46:57;;;;;;;5.25;1.27;;;16.40;99.90;;;;;;5095336;28;20051;-56
2023/08/03 00:49:27;;;;;;;8.43;1.35;;;16.40;99.90;;;;;;5080352;28;20048;-58
2023/08/03 00:51:57;;;;;;;3.95;1.40;;;16.40;99.90;;;;;;5062117;28;20052;-58
2023/08/03 00:54:23;;;;;;;2.38;1.20;;;16.40;99.90;;;;;;5082608;28;20044;-57
2023/08/03 00:56:49;;;;;;;3.85;1.15;;;16.40;99.90;;;;;;5062353;28;20109;-58
2023/08/03 00:59:14;;;;;;;4.88;1.30;;;16.40;99.90;;;;;;5059337;28;20127;-59
2023/08/03 01:01:41;;;;;;;3.67;1.20;;;16.40;99.90;;;;;;5058164;28;20120;-58
2023/08/03 01:04:07;;;;;;;5.78;1.20;;;16.50;99.90;;;;;;5052768;28;20174;-58
2023/08/03 01:06:33;;;;;;;5.38;1.35;;;16.40;99.90;;;;;;5057979;28;20127;-59
2023/08/03 01:09:00;;;;;;;4.70;1.30;;;16.40;99.90;;;;;;5056852;28;20047;-58
2023/08/03 01:11:30;;;;;;;3.67;1.15;;;16.40;99.90;;;;;;5078618;28;20060;-57
2023/08/03 01:13:57;;;;;;;4.82;1.20;;;16.40;99.90;;;;;;5071743;28;20056;-58
2023/08/03 01:16:24;;;;;;;1.58;0.90;;;16.40;99.90;;;;;;5075572;28;20055;-57
2023/08/03 01:18:50;;;;;;;3.47;1.23;;;16.40;99.90;;;;;;5055773;28;20399;-56
2023/08/03 01:21:18;;;;;;;4.38;1.30;;;16.40;99.90;;;;;;5062160;28;20055;-57
2023/08/03 01:23:44;;;;;;;2.92;1.45;;;16.40;99.90;;;;;;5068113;28;20051;-57
2023/08/03 01:26:10;;;;;;;2.72;1.42;;;16.40;99.90;;;;;;5085138;28;20036;-57
2023/08/03 01:28:36;;;;;;;1.83;1.10;;;16.40;99.90;;;;;;5099058;28;20049;-57
2023/08/03 01:31:02;;;;;;;4.20;1.38;;;16.40;99.90;;;;;;5078613;28;20119;-57
2023/08/03 01:33:28;;;;;;;4.05;1.00;;;16.40;99.90;;;;;;5080825;28;20090;-56
2023/08/03 01:35:54;;;;;;;3.30;1.08;;;16.40;99.90;;;;;;5078656;28;20040;-56
2023/08/03 01:38:20;;;;;;;5.60;1.30;;;16.50;99.90;;;;;;5080523;28;20122;-57
2023/08/03 01:40:45;;;;;;;2.58;1.30;;;16.40;99.90;;;;;;5080194;28;20037;-57
2023/08/03 01:43:11;;;;;;;2.45;1.33;;;16.40;99.90;;;;;;5079205;28;20524;-57
2023/08/03 01:45:37;;;;;;;2.65;1.70;;;16.40;99.90;;;;;;5076856;28;20037;-57
2023/08/03 01:48:03;;;;;;;6.50;1.88;;;16.50;99.90;;;;;;5092326;28;20060;-57
2023/08/03 01:50:29;;;;;;;4.40;1.90;;;16.50;99.90;;;;;;5062359;28;20481;-57
2023/08/03 01:52:54;;;;;;;3.55;2.25;;;16.40;99.90;;;;;;5069821;28;20071;-56
2023/08/03 01:55:20;;;;;;;3.28;2.10;;;16.50;99.90;;;;;;5063969;28;20700;-57
2023/08/03 01:57:46;;;;;;;4.63;2.45;;;16.40;99.90;;;;;;5074349;28;20037;-57
2023/08/03 02:00:12;;;;;;;7.38;3.17;;;16.40;99.90;;;;;;5060908;28;20047;-57
2023/08/03 02:02:37;;;;;;;5.40;3.35;;;16.40;99.90;;;;;;5074197;28;20047;-57
2023/08/03 02:05:06;;;;;;;4.38;3.25;;;16.50;99.90;;;;;;5078687;28;20048;-56
2023/08/03 02:07:47;;;;;;;7.05;3.28;;;16.40;99.90;;;;;;5081872;28;20400;-57
2023/08/03 02:10:14;;;;;;;7.95;3.17;;;16.40;99.90;;;;;;5070381;28;20076;-56
2023/08/03 02:12:40;;;;;;;10.48;4.18;;;16.40;99.90;;;;;;5080379;28;20053;-57
2023/08/03 02:15:06;;;;;;;7.43;3.40;;;16.40;99.90;;;;;;5074659;28;20033;-57
2023/08/03 02:17:33;;;;;;;9.70;3.78;;;16.50;99.90;;;;;;5107620;28;20051;-57
2023/08/03 02:19:59;;;;;;;10.48;4.00;;;16.40;99.90;;;;;;5082012;28;20071;-57
2023/08/03 02:22:25;;;;;;;8.48;4.05;;;16.50;99.90;;;;;;5079968;28;20040;-57
2023/08/03 02:24:50;;;;;;;10.18;4.18;;;16.50;99.90;;;;;;5082110;28;20100;-57
2023/08/03 02:27:16;;;;;;;12.02;3.90;;;16.40;99.90;;;;;;5068809;28;20112;-57
2023/08/03 02:29:42;;;;;;;9.25;4.22;;;16.50;99.90;;;;;;5081297;28;20079;-57
2023/08/03 02:32:08;;;;;;;8.95;4.30;;;16.50;99.90;;;;;;5085835;28;20051;-57
2023/08/03 02:34:33;;;;;;;12.95;3.78;;;16.50;99.90;;;;;;5080541;28;20043;-57
2023/08/03 02:36:59;;;;;;;13.88;4.40;;;16.50;99.90;;;;;;5090756;28;20047;-57
2023/08/03 02:39:25;;;;;;;13.30;4.47;;;16.50;99.90;;;;;;5099881;28;20040;-57
2023/08/03 02:41:52;;;;;;;14.73;4.60;;;16.50;99.90;;;;;;5101364;28;20055;-57
2023/08/03 02:44:18;;;;;;;14.70;4.40;;;16.60;99.90;;;;;;5099534;28;20615;-56
2023/08/03 02:46:44;;;;;;;16.23;4.50;;;16.50;99.90;;;;;;5097978;28;20044;-57
2023/08/03 02:49:10;;;;;;;10.82;4.28;;;16.60;99.90;;;;;;5072900;28;20045;-57
2023/08/03 02:51:35;;;;;;;19.88;4.60;;;16.60;99.90;;;;;;5068199;28;20087;-57
2023/08/03 02:54:01;;;;;;;16.92;4.32;;;16.60;99.90;;;;;;5081213;28;20056;-58
2023/08/03 02:56:27;;;;;;;17.58;4.47;;;16.60;99.90;;;;;;5079127;28;20119;-57
2023/08/03 02:58:54;;;;;;;19.10;4.47;;;16.60;99.90;;;;;;5100824;28;20036;-58
2023/08/03 03:01:19;;;;;;;18.17;4.15;;;16.60;99.90;;;;;;5099800;28;20046;-57
2023/08/03 03:03:45;;;;;;;18.65;4.15;;;16.60;99.90;;;;;;5080259;28;20041;-57
2023/08/03 03:06:11;;;;;;;14.43;4.38;;;16.60;99.90;;;;;;5086750;28;20040;-57
2023/08/03 03:08:36;;;;;;;18.17;4.15;;;16.70;99.90;;;;;;5079376;28;20037;-57
2023/08/03 03:11:02;;;;;;;19.70;3.95;;;16.60;99.90;;;;;;5080604;28;20040;-56
2023/08/03 03:13:28;;;;;;;17.17;3.67;;;16.70;99.90;;;;;;5078775;28;20481;-57
2023/08/03 03:15:53;;;;;;;21.45;3.75;;;16.70;99.90;;;;;;5076758;28;20069;-58
2023/08/03 03:18:19;;;;;;;19.08;3.55;;;16.70;99.90;;;;;;5097857;28;20032;-57
2023/08/03 03:20:45;;;;;;;20.08;3.88;;;16.70;99.90;;;;;;5068827;28;20045;-57
2023/08/03 03:23:10;;;;;;;21.70;3.67;;;16.70;99.90;;;;;;5072754;28;20044;-57
2023/08/03 03:25:36;;;;;;;24.00;3.58;;;16.70;99.90;;;;;;5079489;28;20036;-57
2023/08/03 03:28:04;;;;;;;20.60;3.40;;;16.70;99.90;;;;;;5079222;28;20047;-57
2023/08/03 03:30:33;;;;;;;28.42;4.28;;;16.70;99.90;;;;;;5077757;28;20052;-58
2023/08/03 03:32:58;;;;;;;30.88;3.80;;;16.70;99.90;;;;;;5080416;28;20044;-57
2023/08/03 03:35:24;;;;;;;19.80;3.50;;;16.60;99.90;;;;;;5090974;28;20655;-56
2023/08/03 03:37:50;;;;;;;23.17;3.60;;;16.60;99.90;;;;;;5082786;28;20047;-57
2023/08/03 03:40:15;;;;;;;18.02;3.17;;;16.60;99.90;;;;;;5073359;28;20060;-57
2023/08/03 03:42:41;;;;;;;21.25;3.53;;;16.60;99.90;;;;;;5076965;28;20070;-57
2023/08/03 03:45:07;;;;;;;26.20;3.58;;;16.60;99.90;;;;;;5080270;28;20051;-57
2023/08/03 03:47:33;;;;;;;19.10;3.75;;;16.60;99.90;;;;;;5085106;28;20041;-59
2023/08/03 03:49:59;;;;;;;19.23;3.60;;;16.50;99.90;;;;;;5080804;28;20040;-57
2023/08/03 03:52:24;;;;;;;21.20;3.90;;;16.50;99.90;;;;;;5078491;28;20096;-58
2023/08/03 03:54:50;;;;;;;15.02;3.30;;;16.50;99.90;;;;;;5080414;28;20076;-57
2023/08/03 03:57:16;;;;;;;15.45;3.58;;;16.50;99.90;;;;;;5076621;28;20029;-57
2023/08/03 03:59:41;;;;;;;20.98;3.47;;;16.50;99.90;;;;;;5059570;28;20047;-57
2023/08/03 04:02:07;;;;;;;20.40;3.47;;;16.40;99.90;;;;;;5091141;28;20044;-57
2023/08/03 04:04:33;;;;;;;11.60;3.30;;;16.40;99.90;;;;;;5095525;28;20047;-57
2023/08/03 04:06:58;;;;;;;19.35;4.18;;;16.40;99.90;;;;;;5087725;28;20043;-58
2023/08/03 04:09:24;;;;;;;16.95;3.72;;;16.40;99.90;;;;;;5081784;28;20044;-57
2023/08/03 04:11:50;;;;;;;16.52;3.72;;;16.30;99.90;;;;;;5100319;28;20468;-57
2023/08/03 04:14:15;;;;;;;14.02;3.65;;;16.30;99.90;;;;;;5100795;28;20036;-57
2023/08/03 04:16:41;;;;;;;14.70;2.88;;;16.30;99.90;;;;;;5093826;28;20048;-58
2023/08/03 04:19:07;;;;;;;20.05;4.05;;;16.30;99.90;;;;;;5093210;28;20116;-57
2023/08/03 04:21:32;;;;;;;19.08;3.60;;;16.30;99.90;;;;;;5102402;28;20496;-57
2023/08/03 04:23:58;;;;;;;24.60;3.95;;;16.40;99.90;;;;;;5104054;28;20040;-57
2023/08/03 04:26:23;;;;;;;22.40;4.55;;;16.30;99.90;;;;;;5095093;28;20131;-57
2023/08/03 04:28:49;;;;;;;15.85;3.72;;;16.30;99.90;;;;;;5084170;28;20048;-57
2023/08/03 04:31:15;;;;;;;15.65;4.40;;;16.30;99.90;;;;;;5080362;28;20037;-57
2023/08/03 04:33:41;;;;;;;20.35;4.63;;;16.40;99.90;;;;;;5085284;28;20063;-58
2023/08/03 04:36:06;;;;;;;15.23;4.70;;;16.40;99.90;;;;;;5085534;28;20059;-57
2023/08/03 04:38:32;;;;;;;18.77;4.70;;;16.40;99.90;;;;;;5101726;28;20044;-57
2023/08/03 04:41:00;;;;;;;14.85;4.63;;;16.40;99.90;;;;;;5103094;28;20044;-58
2023/08/03 04:43:27;;;;;;;12.77;4.18;;;16.40;99.90;;;;;;5102125;28;20056;-57
2023/08/03 04:45:53;;;;;;;21.52;4.80;;;16.50;99.90;;;;;;5101750;28;20052;-58
2023/08/03 04:48:18;;;;;;;18.60;5.45;;;16.50;99.90;;;;;;5082356;28;20066;-58
2023/08/03 04:50:44;;;;;;;16.80;4.85;;;16.60;99.90;;;;;;5083417;28;20100;-57
2023/08/03 04:53:10;;;;;;;22.05;4.85;;;16.60;99.90;;;;;;5084210;28;20520;-57
2023/08/03 04:55:36;;;;;;;11.20;4.43;;;16.60;99.90;;;;;;5090258;28;20466;-58
2023/08/03 04:58:02;;;;;;;15.27;4.63;;;16.60;99.90;;;;;;5102349;28;20044;-58
2023/08/03 05:00:28;;;;;;;19.67;5.60;;;16.70;99.90;;;;;;5099786;28;20048;-58
2023/08/03 05:02:53;;;;;;;17.73;4.63;;;16.70;99.90;;;;;;5084861;28;20456;-58
2023/08/03 05:05:19;;;;;;;13.75;5.20;;;16.70;99.90;;;;;;5072623;28;20041;-58
2023/08/03 05:07:45;;;;;;;16.02;5.55;;;16.70;99.90;;;;;;5075325;28;20040;-58
2023/08/03 05:10:11;;;;;;;11.32;4.75;;;16.80;99.90;;;;;;5082372;28;20135;-57
2023/08/03 05:12:39;;;;;;;19.58;4.95;;;16.80;99.90;;;;;;5080413;28;20049;-58
2023/08/03 05:15:05;;;;;;;15.15;5.40;;;16.80;99.90;;;;;;5080724;28;20048;-58
2023/08/03 05:17:31;;;;;;;20.50;4.82;;;16.80;99.90;;;;;;5081534;28;20043;-57
2023/08/03 05:19:56;;;;;;;20.83;5.32;;;16.90;99.90;;;;;;5081807;28;20052;-58
2023/08/03 05:22:22;;;;;;;13.13;5.47;;;17.00;99.90;;;;;;5071371;28;20037;-57
2023/08/03 05:24:48;;;;;;;16.35;4.90;;;17.00;99.90;;;;;;5063073;28;20056;-57
2023/08/03 05:27:14;;;;;;;17.10;4.75;;;17.00;99.90;;;;;;5062062;28;20093;-57
2023/08/03 05:29:43;;;;;;;19.73;5.05;;;17.10;99.90;;;;;;5061650;28;20049;-59
2023/08/03 05:32:08;;;;;;;11.93;4.90;;;17.10;99.90;;;;;;5067042;28;20055;-58
2023/08/03 05:34:34;;;;;;;11.85;4.88;;;17.10;99.90;;;;;;5076869;28;20052;-56
2023/08/03 05:37:00;;;;;;;15.02;5.20;;;17.10;99.90;;;;;;5080192;28;20036;-57
2023/08/03 05:39:26;;;;;;;19.45;5.60;;;17.10;99.90;;;;;;5066786;28;20033;-57
2023/08/03 05:41:52;;;;;;;15.75;5.40;;;17.10;99.90;;;;;;5079421;28;20102;-57
2023/08/03 05:44:18;;;;;;;13.52;5.35;;;17.20;99.90;;;;;;5081318;28;20510;-57
2023/08/03 05:46:44;;;;;;;20.73;5.32;;;17.20;99.90;;;;;;5083176;28;20087;-57
2023/08/03 05:49:11;;;;;;;15.82;5.63;;;17.20;99.90;;;;;;5102604;28;20632;-57
2023/08/03 05:51:39;;;;;;;15.90;5.20;;;17.30;99.90;;;;;;5084377;28;20150;-58
2023/08/03 05:54:05;;;;;;;14.45;5.88;;;17.30;99.90;;;;;;5082199;28;20040;-56
2023/08/03 05:56:35;;;;;;;13.68;5.80;;;17.30;99.90;;;;;;5088690;28;20351;-57
2023/08/03 05:59:02;;;;;;;16.27;6.28;;;17.30;99.90;;;;;;5083302;28;20409;-57
2023/08/03 06:01:28;;;;;;;15.43;6.13;;;17.40;99.90;;;;;;5069561;28;20045;-56
2023/08/03 06:03:54;;;;;;;17.67;6.35;;;17.40;99.90;;;;;;5073773;28;20063;-56
2023/08/03 06:06:21;;;;;;;17.45;6.88;;;17.40;99.90;;;;;;5085363;28;20037;-57
2023/08/03 06:08:49;;;;;;;26.23;6.78;;;17.40;99.90;;;;;;5090169;28;20044;-57
2023/08/03 06:11:17;;;;;;;17.83;7.30;;;17.40;99.90;;;;;;5082140;28;20045;-56
2023/08/03 06:13:45;;;;;;;19.05;6.90;;;17.40;99.90;;;;;;5056661;28;20049;-57
2023/08/03 06:16:12;;;;;;;18.83;7.55;;;17.40;99.90;;;;;;5048614;28;20087;-58
2023/08/03 06:18:44;;;;;;;15.35;6.90;;;17.40;99.90;;;;;;5058684;28;20045;-56
2023/08/03 06:21:10;;;;;;;15.68;6.65;;;17.50;99.90;;;;;;5051531;28;20049;-57
2023/08/03 06:23:40;;;;;;;15.70;6.78;;;17.40;99.90;;;;;;5050160;28;20512;-57
2023/08/03 06:26:11;;;;;;;18.70;7.10;;;17.50;99.90;;;;;;5074318;28;20048;-57
2023/08/03 06:28:37;;;;;;;21.02;6.95;;;17.50;99.90;;;;;;5047918;28;20054;-58
2023/08/03 06:31:14;;;;;;;17.60;6.32;;;17.60;99.90;;;;;;5052760;28;20049;-58
2023/08/03 06:33:40;;;;;;;22.23;6.65;;;17.70;99.90;;;;;;5052441;28;20069;-56
2023/08/03 06:36:10;;;;;;;20.33;6.93;;;17.80;99.90;;;;;;5055979;28;20067;-57
2023/08/03 06:38:36;;;;;;;14.52;6.63;;;17.80;99.90;;;;;;5044155;28;20084;-57
2023/08/03 06:41:02;;;;;;;17.23;7.25;;;17.90;99.90;;;;;;5055582;28;20044;-57
2023/08/03 06:43:30;;;;;;;11.13;6.15;;;18.00;99.90;;;;;;5058783;28;20045;-57
2023/08/03 06:45:55;;;;;;;15.00;6.38;;;18.00;99.90;;;;;;5057593;28;20049;-58
2023/08/03 06:48:21;;;;;;;13.18;6.07;;;18.00;99.90;;;;;;5050054;28;20045;-57
2023/08/03 06:50:47;;;;;;;14.68;6.13;;;18.10;99.90;;;;;;5044063;28;20069;-57
2023/08/03 06:53:13;;;;;;;15.20;5.90;;;18.30;99.90;;;;;;5053111;28;20167;-57
2023/08/03 06:55:39;;;;;;;17.73;5.50;;;18.60;99.90;;;;;;5039856;28;20768;-57
2023/08/03 06:58:04;;;;;;;13.70;4.63;;;19.00;99.90;;;;;;5040298;28;20049;-59
2023/08/03 07:00:30;;;;;;;10.85;4.30;;;19.20;99.90;;;;;;5057461;28;20037;-57
2023/08/03 07:02:56;;;;;;;15.65;3.75;;;19.50;99.90;;;;;;5059469;28;20081;-58
2023/08/03 07:05:21;;;;;;;12.00;4.10;;;19.70;99.90;;;;;;5052199;28;20547;-57
2023/08/03 07:07:49;;;;;;;11.02;3.70;;;19.60;99.90;;;;;;5046064;28;20053;-57
2023/08/03 07:10:15;;;;;;;10.70;3.55;;;19.50;99.90;;;;;;5040352;28;20101;-57
2023/08/03 07:12:42;;;;;;;9.45;3.13;;;19.40;99.90;;;;;;5059848;28;20053;-57
2023/08/03 07:15:08;;;;;;;8.05;3.35;;;19.30;99.90;;;;;;5079325;28;20528;-57
2023/08/03 07:17:34;;;;;;;6.13;2.75;;;19.30;99.90;;;;;;5078076;28;20111;-57
2023/08/03 07:19:59;;;;;;;14.60;3.63;;;19.40;99.90;;;;;;5082100;28;20052;-57
2023/08/03 07:22:25;;;;;;;11.20;3.20;;;19.60;99.90;;;;;;5085556;28;20036;-58
2023/08/03 07:24:52;;;;;;;10.40;2.83;;;19.70;99.90;;;;;;5079633;28;20044;-58
2023/08/03 07:27:18;;;;;;;7.05;2.88;;;19.80;99.90;;;;;;5092503;28;20067;-57
2023/08/03 07:29:44;;;;;;;12.73;3.25;;;19.80;99.90;;;;;;5077089;28;20044;-57
2023/08/03 07:32:13;;;;;;;7.25;2.80;;;19.90;99.90;;;;;;5090836;28;20040;-57
2023/08/03 07:34:39;;;;;;;12.63;2.65;;;20.00;99.90;;;;;;5080918;28;20117;-57
2023/08/03 07:37:05;;;;;;;8.10;3.00;;;19.90;99.90;;;;;;5095944;28;20032;-57
2023/08/03 07:39:31;;;;;;;8.48;2.60;;;19.90;99.90;;;;;;5078958;28;20104;-57
2023/08/03 07:41:57;;;;;;;9.73;2.70;;;20.00;99.90;;;;;;5080074;28;20048;-57
2023/08/03 07:44:23;;;;;;;9.82;2.72;;;20.10;99.90;;;;;;5079644;28;20041;-58
2023/08/03 07:46:48;;;;;;;6.72;2.08;;;20.30;99.90;;;;;;5082923;28;20466;-58
2023/08/03 07:49:14;;;;;;;8.00;2.00;;;20.30;99.90;;;;;;5090788;28;20123;-61
2023/08/03 07:51:40;;;;;;;6.97;2.10;;;20.30;99.90;;;;;;5079169;28;20051;-57
2023/08/03 07:54:06;;;;;;;6.18;1.95;;;20.40;99.90;;;;;;5080197;28;20101;-58
2023/08/03 07:56:32;;;;;;;6.45;1.90;;;20.60;99.90;;;;;;5094604;28;20067;-57
2023/08/03 07:58:59;;;;;;;7.05;2.25;;;20.80;99.90;;;;;;5081773;28;20063;-58
2023/08/03 08:01:25;;;;;;;5.15;1.80;;;20.90;99.90;;;;;;5089634;28;20522;-57
2023/08/03 08:03:50;;;;;;;8.95;2.33;;;20.90;99.90;;;;;;5099065;28;20048;-57
2023/08/03 08:06:18;;;;;;;6.10;1.90;;;20.90;99.90;;;;;;5100425;28;20095;-57
2023/08/03 08:08:45;;;;;;;10.95;2.08;;;21.10;99.90;;;;;;5098975;28;20036;-57
2023/08/03 08:11:14;;;;;;;7.75;2.00;;;21.20;99.90;;;;;;5099183;28;20100;-57
2023/08/03 08:13:40;;;;;;;4.38;1.75;;;21.20;99.90;;;;;;5098339;28;20052;-57
2023/08/03 08:16:08;;;;;;;5.35;1.55;;;21.20;99.90;;;;;;5095606;28;20052;-58
2023/08/03 08:18:34;;;;;;;6.72;2.00;;;21.30;99.90;;;;;;5099661;28;20036;-57
2023/08/03 08:21:05;;;;;;;7.50;1.60;;;21.40;99.90;;;;;;5099419;28;20618;-57
2023/08/03 08:23:32;;;;;;;4.53;1.55;;;21.50;99.90;;;;;;5100161;28;20071;-57
2023/08/03 08:25:57;;;;;;;6.65;1.48;;;21.40;99.90;;;;;;5096787;28;20066;-56
2023/08/03 08:28:23;;;;;;;5.53;1.80;;;21.40;99.90;;;;;;5082098;28;20077;-57
2023/08/03 08:30:50;;;;;;;4.07;1.65;;;21.40;99.90;;;;;;5081181;28;20444;-56
2023/08/03 08:33:17;;;;;;;3.92;1.38;;;21.40;99.90;;;;;;5100175;28;20032;-57
2023/08/03 08:35:44;;;;;;;5.15;1.67;;;21.40;99.90;;;;;;5093036;28;20040;-57
2023/08/03 08:38:11;;;;;;;6.00;1.27;;;21.30;99.90;;;;;;5085379;28;20486;-57
2023/08/03 08:40:38;;;;;;;3.65;1.20;;;21.10;99.90;;;;;;5100234;28;20051;-57
2023/08/03 08:43:04;;;;;;;5.35;1.20;;;20.90;99.90;;;;;;5095180;28;20036;-57
2023/08/03 08:45:30;;;;;;;2.95;1.10;;;20.80;99.90;;;;;;5080100;28;20477;-56
2023/08/03 08:47:56;;;;;;;6.88;1.95;;;20.80;99.90;;;;;;5078343;28;20097;-57
2023/08/03 08:50:23;;;;;;;5.13;1.20;;;21.00;99.90;;;;;;5080705;28;20151;-57
2023/08/03 08:52:50;;;;;;;6.15;1.40;;;21.10;99.90;;;;;;5091596;28;20036;-57
2023/08/03 08:55:21;;;;;;;3.92;1.35;;;21.40;99.90;;;;;;5087528;28;20118;-57
2023/08/03 08:57:47;;;;;;;7.05;1.42;;;21.60;99.90;;;;;;5085484;28;20798;-57
2023/08/03 09:00:14;;;;;;;5.38;1.40;;;21.70;99.90;;;;;;5084282;28;20047;-57
2023/08/03 09:02:40;;;;;;;6.93;1.35;;;21.80;99.90;;;;;;5083727;28;20041;-57
2023/08/03 09:05:16;;;;;;;3.72;1.30;;;21.90;99.90;;;;;;5100012;28;20126;-57
2023/08/03 09:07:42;;;;;;;3.25;1.08;;;22.00;99.90;;;;;;5090620;28;20040;-57
2023/08/03 09:10:09;;;;;;;7.43;1.58;;;21.90;99.90;;;;;;5074911;28;20090;-57
2023/08/03 09:12:37;;;;;;;4.25;1.30;;;21.80;99.90;;;;;;5110283;28;20060;-57
2023/08/03 09:15:03;;;;;;;4.80;1.20;;;21.70;99.90;;;;;;5083360;28;20041;-58
2023/08/03 09:17:29;;;;;;;4.60;1.40;;;21.60;99.90;;;;;;5081606;28;20036;-58
2023/08/03 09:19:55;;;;;;;4.40;1.38;;;21.40;99.90;;;;;;5081938;28;20323;-58
2023/08/03 09:22:24;;;;;;;3.85;1.20;;;21.30;99.90;;;;;;5081329;28;20044;-56
2023/08/03 09:25:08;;;;;;;5.32;1.48;;;21.20;99.90;;;;;;5081377;28;20048;-57
2023/08/03 09:27:35;;;;;;;4.93;1.20;;;21.30;99.90;;;;;;5081300;28;20088;-58
2023/08/03 09:30:03;;;;;;;7.63;1.45;;;21.40;99.90;;;;;;5078769;28;20045;-57
2023/08/03 09:32:34;;;;;;;4.00;1.30;;;21.50;99.90;;;;;;5078441;28;20531;-58
2023/08/03 09:35:01;;;;;;;5.00;1.20;;;21.50;99.90;;;;;;5077888;28;20044;-57
2023/08/03 09:37:36;;;;;;;5.55;1.10;;;21.50;99.90;;;;;;5080822;28;20032;-57
2023/08/03 09:40:05;;;;;;;4.78;1.33;;;21.50;99.90;;;;;;5081510;28;20123;-57
2023/08/03 09:42:32;;;;;;;6.38;1.20;;;21.40;99.90;;;;;;5080713;28;20090;-56
2023/08/03 09:45:01;;;;;;;5.80;1.30;;;21.30;99.90;;;;;;5081147;28;20043;-57
2023/08/03 09:47:27;;;;;;;7.05;1.75;;;21.40;99.90;;;;;;5083928;28;20493;-57
2023/08/03 09:49:53;;;;;;;8.27;1.50;;;21.40;99.90;;;;;;5081215;28;20040;-56
2023/08/03 09:52:26;;;;;;;7.57;1.88;;;21.40;99.90;;;;;;5079770;28;20465;-56
2023/08/03 09:55:18;;;;;;;8.68;1.70;;;21.30;99.90;;;;;;5080991;28;20037;-57
2023/08/03 09:58:02;;;;;;;6.25;1.70;;;21.20;99.90;;;;;;5082035;28;20047;-57
2023/08/03 10:00:28;;;;;;;7.63;1.42;;;21.20;99.90;;;;;;5079448;28;20182;-57
2023/08/03 10:03:21;;;;;;;5.53;1.77;;;21.20;99.90;;;;;;5080400;28;20045;-56
2023/08/03 10:05:55;;;;;;;7.75;1.65;;;21.20;99.90;;;;;;5075113;28;20063;-57
2023/08/03 10:08:34;;;;;;;9.45;1.90;;;21.20;99.90;;;;;;5080219;28;20084;-57
2023/08/03 10:11:01;;;;;;;7.63;1.80;;;21.30;99.90;;;;;;5081923;28;20067;-57
2023/08/03 10:13:30;;;;;;;6.60;1.80;;;21.30;99.90;;;;;;5077530;28;20069;-57
2023/08/03 10:15:57;;;;;;;7.70;1.90;;;21.20;99.90;;;;;;5075861;28;20056;-57
2023/08/03 10:18:24;;;;;;;6.53;1.88;;;21.20;99.90;;;;;;5077805;28;20071;-56
2023/08/03 10:20:50;;;;;;;7.53;1.50;;;21.30;99.90;;;;;;5080040;28;20049;-57
2023/08/03 10:23:19;;;;;;;8.82;1.95;;;21.30;99.90;;;;;;5081667;28;20058;-56
2023/08/03 10:25:57;;;;;;;5.78;1.52;;;21.40;99.90;;;;;;5080581;28;20036;-57
2023/08/03 10:28:43;;;;;;;7.63;1.90;;;21.40;99.90;;;;;;5068554;28;20495;-57
2023/08/03 10:31:11;;;;;;;;;;;21.40;99.90;;;;;;5076061;28;20064;-56
2023/08/03 10:33:49;;;;;;;12.18;2.97;;;21.40;99.90;;;;;;5079331;28;20404;-57
2023/08/03 10:36:30;;;;;;;6.18;2.13;;;21.40;99.90;;;;;;5071276;28;20045;-57
2023/08/03 10:39:00;;;;;;;5.85;1.77;;;21.30;99.90;;;;;;5080754;28;20044;-57
2023/08/03 10:41:27;;;;;;;9.27;1.80;;;21.20;99.90;;;;;;5078166;28;20045;-56
2023/08/03 10:44:09;;;;;;;6.85;1.85;;;21.10;99.90;;;;;;5078968;28;20049;-56
2023/08/03 10:46:37;;;;;;;7.50;2.08;;;21.10;99.90;;;;;;5082471;28;20557;-56
2023/08/03 10:49:19;;;;;;;8.98;2.75;;;21.00;99.90;;;;;;5100671;28;20040;-57
2023/08/03 10:51:51;;;;;;;6.15;2.30;;;21.00;99.90;;;;;;5076727;28;20065;-57
2023/08/03 10:54:19;;;;;;;5.72;1.90;;;21.00;99.90;;;;;;5085107;28;20045;-57
2023/08/03 10:57:08;;;;;;;4.68;1.63;;;21.10;99.90;;;;;;5077981;28;20048;-57
2023/08/03 10:59:43;;;;;;;6.30;2.28;;;21.30;99.90;;;;;;5079851;28;20092;-57
2023/08/03 11:02:09;;;;;;;4.57;1.42;;;21.40;99.90;;;;;;5079902;28;20044;-57
2023/08/03 11:04:35;;;;;;;3.90;1.20;;;21.40;99.90;;;;;;5079209;28;20045;-56
2023/08/03 11:07:02;;;;;;;4.25;1.08;;;21.20;99.90;;;;;;5081567;28;20044;-56
2023/08/03 11:09:29;;;;;;;5.03;1.45;;;21.10;99.90;;;;;;5061410;28;20044;-56
2023/08/03 11:11:57;;;;;;;8.35;2.05;;;21.00;99.90;;;;;;5080513;28;20114;-56
2023/08/03 11:14:23;;;;;;;7.00;2.53;;;21.00;99.90;;;;;;5080574;28;20136;-56
2023/08/03 11:16:49;;;;;;;8.77;2.25;;;21.10;99.90;;;;;;5079087;28;20500;-57
2023/08/03 11:19:15;;;;;;;7.10;2.10;;;21.20;99.90;;;;;;5069782;28;20040;-56
2023/08/03 11:21:41;;;;;;;7.10;2.72;;;21.30;99.90;;;;;;5089744;28;20051;-57
2023/08/03 11:24:07;;;;;;;10.63;2.90;;;21.40;99.90;;;;;;5065105;28;20151;-57
2023/08/03 11:26:33;;;;;;;13.10;3.25;;;21.30;99.90;;;;;;5078434;28;20067;-57
2023/08/03 11:28:58;;;;;;;8.68;3.00;;;21.20;99.90;;;;;;5086193;28;20658;-56
2023/08/03 11:31:24;;;;;;;10.75;3.28;;;21.10;99.90;;;;;;5080677;28;20075;-56
2023/08/03 11:33:54;;;;;;;13.05;3.92;;;21.10;99.90;;;;;;5070310;28;20048;-56
2023/08/03 11:36:22;;;;;;;9.05;2.60;;;21.10;99.90;;;;;;5062123;28;20041;-56
2023/08/03 11:38:49;;;;;;;10.18;2.65;;;21.20;99.90;;;;;;5078334;28;20069;-56
2023/08/03 11:41:16;;;;;;;9.00;2.15;;;21.30;99.90;;;;;;5062985;28;20045;-56
2023/08/03 11:43:42;;;;;;;11.73;3.17;;;21.30;99.90;;;;;;5057297;28;21743;-56
2023/08/03 11:46:08;;;;;;;10.70;3.17;;;21.30;99.90;;;;;;5059449;28;20397;-56
2023/08/03 11:48:34;;;;;;;13.15;2.75;;;21.30;99.90;;;;;;5058299;28;20041;-57
2023/08/03 11:50:59;;;;;;;5.40;1.50;;;21.30;99.90;;;;;;5069825;28;20068;-56
2023/08/03 11:53:26;;;;;;;7.82;1.80;;;21.30;99.90;;;;;;5064963;28;20045;-57
2023/08/03 11:55:52;;;;;;;7.53;2.33;;;21.20;99.90;;;;;;5079232;28;20045;-57
2023/08/03 11:58:25;;;;;;;7.32;2.20;;;21.20;99.90;;;;;;5061652;28;20112;-56
2023/08/03 12:01:02;;;;;;;9.48;2.17;;;21.20;99.90;;;;;;5079037;28;20048;-56
2023/08/03 12:03:36;;;;;;;9.60;2.13;;;21.30;99.90;;;;;;5078530;28;20093;-56
2023/08/03 12:06:10;;;;;;;7.63;1.88;;;21.40;99.90;;;;;;5077440;28;20534;-56
2023/08/03 12:08:45;;;;;;;5.55;1.70;;;21.50;99.90;;;;;;5075878;28;20036;-56
2023/08/03 12:11:16;;;;;;;8.18;1.83;;;21.50;99.90;;;;;;5060486;28;20107;-56
2023/08/03 12:13:41;;;;;;;5.50;1.40;;;21.50;99.90;;;;;;5057328;28;20049;-56
2023/08/03 12:16:07;;;;;;;4.97;1.48;;;21.50;99.90;;;;;;5060384;28;20096;-57
2023/08/03 12:18:33;;;;;;;4.65;1.27;;;21.40;99.90;;;;;;5059441;28;20497;-56
2023/08/03 12:20:58;;;;;;;5.88;1.58;;;21.30;99.90;;;;;;5076931;28;20048;-57
2023/08/03 12:23:24;;;;;;;4.80;1.50;;;21.20;99.90;;;;;;5078687;28;20048;-56
2023/08/03 12:25:52;;;;;;;6.32;1.40;;;21.20;99.90;;;;;;5059776;28;20043;-56
2023/08/03 12:28:18;;;;;;;5.72;1.50;;;21.20;99.90;;;;;;5080410;28;20055;-57
2023/08/03 12:30:43;;;;;;;9.15;2.10;;;21.20;99.90;;;;;;5082516;28;20041;-56
2023/08/03 12:33:10;;;;;;;6.70;1.92;;;21.20;99.90;;;;;;5083617;28;20080;-57
2023/08/03 12:35:36;;;;;;;5.22;1.77;;;21.30;99.90;;;;;;5097104;28;20044;-57
2023/08/03 12:38:02;;;;;;;7.03;1.65;;;21.40;99.90;;;;;;5081559;28;20046;-56
2023/08/03 12:40:28;;;;;;;8.02;2.33;;;21.30;99.90;;;;;;5086714;28;20036;-60
2023/08/03 12:42:54;;;;;;;7.57;1.75;;;21.30;99.90;;;;;;5102611;28;20050;-57